createdAt,value
2018-12-22T10:59:16.823Z,9.10
2018-12-22T11:04:20.130Z,10.40
2018-12-22T11:09:23.592Z,11.80
2018-12-22T11:14:26.915Z,12.20
2018-12-22T11:19:30.267Z,12.50
2018-12-22T11:24:33.751Z,13.20
2018-12-22T11:29:37.211Z,14.20
2018-12-22T11:34:40.775Z,14.50
2018-12-22T11:39:44.169Z,14.80
2018-12-22T11:44:47.721Z,14.10
2018-12-22T11:49:50.982Z,13.80
2018-12-22T11:54:54.314Z,13.30
2018-12-22T11:59:57.814Z,13.40
2018-12-22T12:05:01.162Z,13.10
2018-12-22T12:10:05.409Z,12.70
2018-12-22T12:15:14.708Z,12.20
2018-12-22T12:20:18.006Z,12.10
2018-12-22T12:25:21.273Z,12.50
2018-12-22T12:30:24.618Z,12.80
2018-12-22T12:35:27.906Z,12.80
2018-12-22T12:40:31.278Z,12.70
2018-12-22T12:45:34.584Z,12.60
2018-12-22T12:50:38.039Z,12.50
2018-12-22T12:55:41.290Z,12.40
2018-12-22T13:00:44.860Z,12.70
2018-12-22T13:05:48.118Z,13.20
2018-12-22T13:10:51.373Z,13.20
2018-12-22T13:15:54.610Z,13.10
2018-12-22T13:20:58.130Z,13.00
2018-12-22T13:26:01.397Z,13.00
2018-12-22T13:31:04.708Z,12.90
2018-12-22T13:36:08.546Z,12.60
2018-12-22T13:41:11.812Z,12.80
2018-12-22T13:46:15.173Z,12.60
2018-12-22T13:51:18.523Z,12.40
2018-12-22T13:56:21.863Z,12.30
2018-12-22T14:01:26.162Z,12.20
2018-12-22T14:06:32.407Z,12.10
2018-12-22T14:11:35.742Z,12.10
2018-12-22T14:16:47.038Z,12.10
2018-12-22T14:21:55.084Z,12.10
2018-12-22T14:26:58.353Z,12.10
2018-12-22T14:32:01.932Z,12.10
2018-12-22T14:37:05.456Z,12.00
2018-12-22T14:42:09.474Z,12.00
2018-12-22T14:47:12.853Z,12.10
2018-12-22T14:52:16.364Z,12.00
2018-12-22T14:57:20.223Z,12.00
2018-12-22T15:02:23.483Z,11.80
2018-12-22T15:07:27.636Z,11.90
2018-12-22T15:12:31.089Z,11.60
2018-12-22T15:17:34.498Z,11.40
2018-12-22T15:39:30.255Z,11.30
2018-12-22T15:44:33.718Z,11.00
2018-12-22T15:49:36.989Z,10.90
2018-12-22T15:54:40.283Z,10.90
2018-12-22T15:59:43.839Z,10.80
2018-12-22T16:04:47.131Z,10.80
2018-12-22T16:09:50.611Z,10.70
2018-12-22T16:14:53.924Z,10.70
2018-12-22T16:25:12.614Z,10.40
2018-12-22T16:30:20.558Z,10.50
2018-12-22T16:35:23.930Z,10.30
2018-12-22T16:40:27.451Z,10.20
2018-12-22T16:45:31.037Z,10.20
2018-12-22T16:50:37.139Z,10.10
2018-12-22T16:55:46.506Z,10.10
2018-12-22T17:01:10.879Z,10.10
2018-12-22T17:06:22.126Z,10.10
2018-12-22T17:11:58.399Z,10.00
2018-12-22T17:17:03.648Z,9.80
2018-12-22T17:22:18.322Z,10.00
2018-12-22T17:27:22.198Z,9.90
2018-12-22T17:32:25.547Z,9.90
2018-12-22T17:37:28.963Z,9.70
2018-12-22T17:42:32.301Z,9.80
2018-12-22T17:47:35.587Z,9.80
2018-12-22T17:52:39.163Z,9.80
2018-12-22T17:57:42.505Z,9.80
2018-12-22T18:03:14.919Z,9.90
2018-12-22T19:29:34.170Z,10.40
2018-12-22T19:35:52.428Z,10.40
2018-12-22T19:52:03.107Z,10.30
2018-12-22T19:57:06.548Z,10.30
2018-12-22T20:02:09.952Z,10.10
2018-12-22T20:07:13.390Z,10.10
2018-12-22T20:12:16.681Z,9.90
2018-12-22T20:22:36.958Z,10.00
2018-12-22T20:27:40.394Z,10.00
2018-12-22T20:32:44.449Z,10.00
2018-12-22T20:37:47.820Z,10.00
2018-12-22T20:42:51.094Z,10.10
2018-12-22T20:47:54.402Z,10.20
2018-12-22T20:52:57.711Z,10.20
2018-12-22T20:58:00.991Z,10.20
2018-12-22T21:03:05.097Z,10.20
2018-12-22T21:08:08.550Z,10.10
2018-12-22T21:13:11.835Z,10.20
2018-12-22T21:18:15.235Z,10.20
2018-12-22T21:23:18.593Z,10.00
2018-12-22T21:28:22.116Z,10.10
2018-12-22T21:33:25.552Z,10.10
2018-12-22T21:38:28.890Z,10.00
2018-12-22T21:43:32.293Z,10.00
2018-12-22T21:48:37.719Z,10.00
2018-12-22T21:53:40.958Z,9.90
2018-12-22T21:58:44.492Z,9.90
2018-12-22T22:03:47.758Z,10.00
2018-12-22T22:08:51.097Z,9.80
2018-12-22T22:13:54.576Z,9.80
2018-12-22T22:18:57.936Z,9.80
2018-12-22T22:24:01.414Z,9.70
2018-12-22T22:29:05.563Z,9.70
2018-12-22T22:34:08.904Z,9.70
2018-12-22T22:39:14.927Z,9.60
2018-12-22T22:44:18.210Z,9.70
2018-12-22T22:49:21.547Z,9.60
2018-12-22T22:54:24.894Z,9.50
2018-12-22T22:59:28.371Z,9.40
2018-12-22T23:04:31.684Z,9.40
2018-12-22T23:09:35.037Z,9.30
2018-12-22T23:14:38.386Z,9.20
2018-12-22T23:19:41.769Z,9.10
2018-12-22T23:24:46.280Z,9.10
2018-12-22T23:29:49.602Z,9.10
2018-12-22T23:34:53.197Z,9.10
2018-12-22T23:39:56.470Z,9.10
2018-12-22T23:44:59.774Z,9.30
2018-12-22T23:50:03.311Z,9.20
2018-12-22T23:55:06.853Z,9.30
